sensor_id;sensor_type;location;lat;lon;timestamp;temperature;humidity
79336;SHT35;68808;52.582;5.388;2023-03-26T00:01:00;7.93;92.76
79336;SHT35;68808;52.582;5.388;2023-03-26T00:03:35;7.94;92.71
79336;SHT35;68808;52.582;5.388;2023-03-26T00:06:13;7.94;93.19
79336;SHT35;68808;52.582;5.388;2023-03-26T00:08:45;7.95;93.00
79336;SHT35;68808;52.582;5.388;2023-03-26T00:11:19;7.90;92.92
79336;SHT35;68808;52.582;5.388;2023-03-26T00:13:52;7.89;93.20
79336;SHT35;68808;52.582;5.388;2023-03-26T00:16:27;7.91;92.90
79336;SHT35;68808;52.582;5.388;2023-03-26T00:19:00;7.92;93.05
79336;SHT35;68808;52.582;5.388;2023-03-26T00:21:35;7.92;92.74
79336;SHT35;68808;52.582;5.388;2023-03-26T00:24:11;7.93;93.21
79336;SHT35;68808;52.582;5.388;2023-03-26T00:26:44;7.93;92.78
79336;SHT35;68808;52.582;5.388;2023-03-26T00:29:20;7.93;92.64
79336;SHT35;68808;52.582;5.388;2023-03-26T00:31:55;7.93;92.59
79336;SHT35;68808;52.582;5.388;2023-03-26T00:34:27;7.93;92.89
79336;SHT35;68808;52.582;5.388;2023-03-26T00:37:04;7.92;93.16
79336;SHT35;68808;52.582;5.388;2023-03-26T00:39:36;7.91;93.07
79336;SHT35;68808;52.582;5.388;2023-03-26T00:42:09;7.89;92.72
79336;SHT35;68808;52.582;5.388;2023-03-26T00:44:43;7.87;92.84
79336;SHT35;68808;52.582;5.388;2023-03-26T00:47:15;7.85;93.05
79336;SHT35;68808;52.582;5.388;2023-03-26T00:49:47;7.84;92.95
79336;SHT35;68808;52.582;5.388;2023-03-26T00:52:21;7.82;93.10
79336;SHT35;68808;52.582;5.388;2023-03-26T00:54:55;7.82;92.73
79336;SHT35;68808;52.582;5.388;2023-03-26T00:57:28;7.81;93.08
79336;SHT35;68808;52.582;5.388;2023-03-26T01:00:07;7.82;93.07
79336;SHT35;68808;52.582;5.388;2023-03-26T01:02:44;7.81;92.68
79336;SHT35;68808;52.582;5.388;2023-03-26T01:05:44;7.80;93.16
79336;SHT35;68808;52.582;5.388;2023-03-26T01:08:30;7.79;93.11
79336;SHT35;68808;52.582;5.388;2023-03-26T01:11:08;7.78;93.63
79336;SHT35;68808;52.582;5.388;2023-03-26T01:13:46;7.77;93.55
79336;SHT35;68808;52.582;5.388;2023-03-26T01:16:25;7.77;93.61
79336;SHT35;68808;52.582;5.388;2023-03-26T01:18:57;7.76;93.93
79336;SHT35;68808;52.582;5.388;2023-03-26T01:21:30;7.77;93.64
79336;SHT35;68808;52.582;5.388;2023-03-26T01:24:07;7.77;93.47
79336;SHT35;68808;52.582;5.388;2023-03-26T01:29:51;7.80;93.12
79336;SHT35;68808;52.582;5.388;2023-03-26T01:32:49;7.81;92.90
79336;SHT35;68808;52.582;5.388;2023-03-26T01:35:35;7.82;93.29
79336;SHT35;68808;52.582;5.388;2023-03-26T01:38:19;7.83;93.40
79336;SHT35;68808;52.582;5.388;2023-03-26T01:41:03;7.84;94.16
79336;SHT35;68808;52.582;5.388;2023-03-26T01:43:42;7.86;93.90
79336;SHT35;68808;52.582;5.388;2023-03-26T01:46:17;7.88;93.94
79336;SHT35;68808;52.582;5.388;2023-03-26T01:48:50;7.89;93.50
79336;SHT35;68808;52.582;5.388;2023-03-26T01:51:28;7.90;93.74
79336;SHT35;68808;52.582;5.388;2023-03-26T01:54:02;7.91;93.30
79336;SHT35;68808;52.582;5.388;2023-03-26T01:56:49;7.91;93.11
79336;SHT35;68808;52.582;5.388;2023-03-26T02:02:50;7.90;92.60
79336;SHT35;68808;52.582;5.388;2023-03-26T02:05:29;7.90;92.97
79336;SHT35;68808;52.582;5.388;2023-03-26T02:08:10;7.88;93.00
79336;SHT35;68808;52.582;5.388;2023-03-26T02:10:53;7.84;93.04
79336;SHT35;68808;52.582;5.388;2023-03-26T02:13:29;7.77;92.73
79336;SHT35;68808;52.582;5.388;2023-03-26T02:16:05;7.76;92.96
79336;SHT35;68808;52.582;5.388;2023-03-26T02:18:39;7.74;93.29
79336;SHT35;68808;52.582;5.388;2023-03-26T02:21:14;7.73;93.09
79336;SHT35;68808;52.582;5.388;2023-03-26T02:23:49;7.72;93.45
79336;SHT35;68808;52.582;5.388;2023-03-26T02:26:25;7.72;94.27
79336;SHT35;68808;52.582;5.388;2023-03-26T02:29:00;7.71;93.19
79336;SHT35;68808;52.582;5.388;2023-03-26T02:31:32;7.70;93.99
79336;SHT35;68808;52.582;5.388;2023-03-26T02:34:05;7.70;93.32
79336;SHT35;68808;52.582;5.388;2023-03-26T02:36:37;7.70;93.43
79336;SHT35;68808;52.582;5.388;2023-03-26T02:39:10;7.70;93.18
79336;SHT35;68808;52.582;5.388;2023-03-26T02:41:42;7.70;93.19
79336;SHT35;68808;52.582;5.388;2023-03-26T02:44:17;7.70;93.54
79336;SHT35;68808;52.582;5.388;2023-03-26T02:46:49;7.71;93.52
79336;SHT35;68808;52.582;5.388;2023-03-26T02:49:21;7.72;93.34
79336;SHT35;68808;52.582;5.388;2023-03-26T02:51:54;7.75;94.61
79336;SHT35;68808;52.582;5.388;2023-03-26T02:54:26;7.79;93.76
79336;SHT35;68808;52.582;5.388;2023-03-26T02:56:58;7.82;93.40
79336;SHT35;68808;52.582;5.388;2023-03-26T02:59:33;7.82;93.17
79336;SHT35;68808;52.582;5.388;2023-03-26T03:02:05;7.82;92.69
79336;SHT35;68808;52.582;5.388;2023-03-26T03:04:38;7.84;93.41
79336;SHT35;68808;52.582;5.388;2023-03-26T03:07:11;7.87;94.21
79336;SHT35;68808;52.582;5.388;2023-03-26T03:09:44;7.92;94.11
79336;SHT35;68808;52.582;5.388;2023-03-26T03:12:17;7.96;93.97
79336;SHT35;68808;52.582;5.388;2023-03-26T03:14:52;7.99;94.12
79336;SHT35;68808;52.582;5.388;2023-03-26T03:17:24;8.03;94.15
79336;SHT35;68808;52.582;5.388;2023-03-26T03:19:56;8.06;94.05
79336;SHT35;68808;52.582;5.388;2023-03-26T03:22:28;8.09;94.15
79336;SHT35;68808;52.582;5.388;2023-03-26T03:25:01;8.11;94.11
79336;SHT35;68808;52.582;5.388;2023-03-26T03:27:36;8.14;94.08
79336;SHT35;68808;52.582;5.388;2023-03-26T03:30:12;8.16;94.29
79336;SHT35;68808;52.582;5.388;2023-03-26T03:32:45;8.18;94.06
79336;SHT35;68808;52.582;5.388;2023-03-26T03:35:17;8.20;94.23
79336;SHT35;68808;52.582;5.388;2023-03-26T03:37:50;8.23;94.18
79336;SHT35;68808;52.582;5.388;2023-03-26T03:40:22;8.26;93.77
79336;SHT35;68808;52.582;5.388;2023-03-26T03:42:54;8.29;93.95
79336;SHT35;68808;52.582;5.388;2023-03-26T03:45:29;8.32;94.04
79336;SHT35;68808;52.582;5.388;2023-03-26T03:48:01;8.35;94.04
79336;SHT35;68808;52.582;5.388;2023-03-26T03:50:34;8.37;93.56
79336;SHT35;68808;52.582;5.388;2023-03-26T03:53:06;8.39;93.27
79336;SHT35;68808;52.582;5.388;2023-03-26T03:55:43;8.40;93.45
79336;SHT35;68808;52.582;5.388;2023-03-26T03:58:21;8.42;92.96
79336;SHT35;68808;52.582;5.388;2023-03-26T04:00:57;8.44;93.17
79336;SHT35;68808;52.582;5.388;2023-03-26T04:03:31;8.45;93.13
79336;SHT35;68808;52.582;5.388;2023-03-26T04:06:09;8.45;92.78
79336;SHT35;68808;52.582;5.388;2023-03-26T04:08:46;8.46;92.74
79336;SHT35;68808;52.582;5.388;2023-03-26T04:11:18;8.43;92.94
79336;SHT35;68808;52.582;5.388;2023-03-26T04:13:50;8.42;93.11
79336;SHT35;68808;52.582;5.388;2023-03-26T04:16:25;8.45;92.96
79336;SHT35;68808;52.582;5.388;2023-03-26T04:18:57;8.47;92.51
79336;SHT35;68808;52.582;5.388;2023-03-26T04:21:31;8.49;92.99
79336;SHT35;68808;52.582;5.388;2023-03-26T04:24:05;8.53;92.83
79336;SHT35;68808;52.582;5.388;2023-03-26T04:26:38;8.54;92.85
79336;SHT35;68808;52.582;5.388;2023-03-26T04:29:12;8.55;92.21
79336;SHT35;68808;52.582;5.388;2023-03-26T04:31:54;8.57;92.02
79336;SHT35;68808;52.582;5.388;2023-03-26T04:34:34;8.57;91.82
79336;SHT35;68808;52.582;5.388;2023-03-26T04:37:06;8.58;91.95
79336;SHT35;68808;52.582;5.388;2023-03-26T04:39:39;8.59;92.07
79336;SHT35;68808;52.582;5.388;2023-03-26T04:42:12;8.59;92.03
79336;SHT35;68808;52.582;5.388;2023-03-26T04:44:47;8.59;91.92
79336;SHT35;68808;52.582;5.388;2023-03-26T04:47:22;8.61;92.15
79336;SHT35;68808;52.582;5.388;2023-03-26T04:49:54;8.62;91.72
79336;SHT35;68808;52.582;5.388;2023-03-26T04:52:27;8.64;91.96
79336;SHT35;68808;52.582;5.388;2023-03-26T04:55:00;8.64;91.91
79336;SHT35;68808;52.582;5.388;2023-03-26T04:57:37;8.65;91.80
79336;SHT35;68808;52.582;5.388;2023-03-26T05:00:15;8.64;91.45
79336;SHT35;68808;52.582;5.388;2023-03-26T05:02:50;8.63;91.61
79336;SHT35;68808;52.582;5.388;2023-03-26T05:05:27;8.62;91.66
79336;SHT35;68808;52.582;5.388;2023-03-26T05:07:59;8.62;91.59
79336;SHT35;68808;52.582;5.388;2023-03-26T05:10:32;8.61;91.59
79336;SHT35;68808;52.582;5.388;2023-03-26T05:13:04;8.61;91.95
79336;SHT35;68808;52.582;5.388;2023-03-26T05:15:36;8.60;91.67
79336;SHT35;68808;52.582;5.388;2023-03-26T05:18:11;8.59;92.05
79336;SHT35;68808;52.582;5.388;2023-03-26T05:20:44;8.59;91.97
79336;SHT35;68808;52.582;5.388;2023-03-26T05:23:16;8.59;91.86
79336;SHT35;68808;52.582;5.388;2023-03-26T05:25:48;8.61;91.74
79336;SHT35;68808;52.582;5.388;2023-03-26T05:28:23;8.62;91.62
79336;SHT35;68808;52.582;5.388;2023-03-26T05:30:55;8.63;91.61
79336;SHT35;68808;52.582;5.388;2023-03-26T05:33:30;8.64;92.29
79336;SHT35;68808;52.582;5.388;2023-03-26T05:36:06;8.66;91.37
79336;SHT35;68808;52.582;5.388;2023-03-26T05:38:41;8.67;91.16
79336;SHT35;68808;52.582;5.388;2023-03-26T05:41:16;8.68;91.05
79336;SHT35;68808;52.582;5.388;2023-03-26T05:43:48;8.69;91.72
79336;SHT35;68808;52.582;5.388;2023-03-26T05:46:20;8.70;91.72
79336;SHT35;68808;52.582;5.388;2023-03-26T05:48:55;8.70;91.30
79336;SHT35;68808;52.582;5.388;2023-03-26T05:51:28;8.70;91.97
79336;SHT35;68808;52.582;5.388;2023-03-26T05:54:00;8.70;91.44
79336;SHT35;68808;52.582;5.388;2023-03-26T05:56:32;8.70;91.61
79336;SHT35;68808;52.582;5.388;2023-03-26T05:59:05;8.71;91.18
79336;SHT35;68808;52.582;5.388;2023-03-26T06:01:37;8.71;90.67
79336;SHT35;68808;52.582;5.388;2023-03-26T06:04:15;8.71;91.41
79336;SHT35;68808;52.582;5.388;2023-03-26T06:06:47;8.73;91.58
79336;SHT35;68808;52.582;5.388;2023-03-26T06:09:19;8.75;91.31
79336;SHT35;68808;52.582;5.388;2023-03-26T06:11:51;8.72;91.79
79336;SHT35;68808;52.582;5.388;2023-03-26T06:14:24;8.74;91.92
79336;SHT35;68808;52.582;5.388;2023-03-26T06:16:56;8.77;91.57
79336;SHT35;68808;52.582;5.388;2023-03-26T06:19:30;8.80;91.54
79336;SHT35;68808;52.582;5.388;2023-03-26T06:22:03;8.83;91.20
79336;SHT35;68808;52.582;5.388;2023-03-26T06:24:35;8.85;91.40
79336;SHT35;68808;52.582;5.388;2023-03-26T06:27:07;8.88;91.39
79336;SHT35;68808;52.582;5.388;2023-03-26T06:29:39;8.91;91.39
79336;SHT35;68808;52.582;5.388;2023-03-26T06:32:11;8.94;91.14
79336;SHT35;68808;52.582;5.388;2023-03-26T06:34:50;8.97;91.47
79336;SHT35;68808;52.582;5.388;2023-03-26T06:37:22;8.99;91.12
79336;SHT35;68808;52.582;5.388;2023-03-26T06:39:54;9.00;90.76
79336;SHT35;68808;52.582;5.388;2023-03-26T06:42:26;9.01;90.16
79336;SHT35;68808;52.582;5.388;2023-03-26T06:45:18;9.01;90.11
79336;SHT35;68808;52.582;5.388;2023-03-26T06:47:50;9.00;90.12
79336;SHT35;68808;52.582;5.388;2023-03-26T06:50:25;9.00;90.26
79336;SHT35;68808;52.582;5.388;2023-03-26T06:52:59;9.00;90.37
79336;SHT35;68808;52.582;5.388;2023-03-26T06:55:31;9.00;90.31
79336;SHT35;68808;52.582;5.388;2023-03-26T06:58:03;9.01;90.48
79336;SHT35;68808;52.582;5.388;2023-03-26T07:00:37;9.02;90.61
79336;SHT35;68808;52.582;5.388;2023-03-26T07:03:09;9.04;90.59
79336;SHT35;68808;52.582;5.388;2023-03-26T07:05:47;9.05;90.58
79336;SHT35;68808;52.582;5.388;2023-03-26T07:08:20;9.07;90.70
79336;SHT35;68808;52.582;5.388;2023-03-26T07:10:53;9.08;90.24
79336;SHT35;68808;52.582;5.388;2023-03-26T07:13:25;9.09;90.34
79336;SHT35;68808;52.582;5.388;2023-03-26T07:15:57;9.11;90.29
79336;SHT35;68808;52.582;5.388;2023-03-26T07:18:30;9.13;90.36
79336;SHT35;68808;52.582;5.388;2023-03-26T07:21:06;9.14;89.67
79336;SHT35;68808;52.582;5.388;2023-03-26T07:23:38;9.14;89.83
79336;SHT35;68808;52.582;5.388;2023-03-26T07:26:25;9.16;89.91
79336;SHT35;68808;52.582;5.388;2023-03-26T07:29:09;9.19;90.32
79336;SHT35;68808;52.582;5.388;2023-03-26T07:31:50;9.22;90.26
79336;SHT35;68808;52.582;5.388;2023-03-26T07:34:39;9.26;90.22
79336;SHT35;68808;52.582;5.388;2023-03-26T07:37:28;9.31;91.00
79336;SHT35;68808;52.582;5.388;2023-03-26T07:40:11;9.36;89.47
79336;SHT35;68808;52.582;5.388;2023-03-26T07:43:02;9.37;88.96
79336;SHT35;68808;52.582;5.388;2023-03-26T07:45:40;9.37;88.76
79336;SHT35;68808;52.582;5.388;2023-03-26T07:48:17;9.37;89.04
79336;SHT35;68808;52.582;5.388;2023-03-26T07:50:53;9.36;89.18
79336;SHT35;68808;52.582;5.388;2023-03-26T07:53:30;9.36;88.60
79336;SHT35;68808;52.582;5.388;2023-03-26T07:56:09;9.34;88.64
79336;SHT35;68808;52.582;5.388;2023-03-26T07:58:58;9.34;89.00
79336;SHT35;68808;52.582;5.388;2023-03-26T08:02:06;9.35;89.66
79336;SHT35;68808;52.582;5.388;2023-03-26T08:05:00;9.41;89.59
79336;SHT35;68808;52.582;5.388;2023-03-26T08:07:51;9.46;89.04
79336;SHT35;68808;52.582;5.388;2023-03-26T08:10:35;9.49;89.16
79336;SHT35;68808;52.582;5.388;2023-03-26T08:13:23;9.48;89.46
79336;SHT35;68808;52.582;5.388;2023-03-26T08:16:04;9.51;88.87
79336;SHT35;68808;52.582;5.388;2023-03-26T08:18:50;9.54;89.18
79336;SHT35;68808;52.582;5.388;2023-03-26T08:21:27;9.57;88.64
79336;SHT35;68808;52.582;5.388;2023-03-26T08:24:07;9.61;87.93
79336;SHT35;68808;52.582;5.388;2023-03-26T08:26:52;9.62;87.92
79336;SHT35;68808;52.582;5.388;2023-03-26T08:29:36;9.64;87.94
79336;SHT35;68808;52.582;5.388;2023-03-26T08:32:17;9.64;87.73
79336;SHT35;68808;52.582;5.388;2023-03-26T08:34:49;9.64;87.86
79336;SHT35;68808;52.582;5.388;2023-03-26T08:37:24;9.63;87.32
79336;SHT35;68808;52.582;5.388;2023-03-26T08:39:57;9.61;87.54
79336;SHT35;68808;52.582;5.388;2023-03-26T08:42:56;9.60;87.52
79336;SHT35;68808;52.582;5.388;2023-03-26T08:49:01;9.57;88.06
79336;SHT35;68808;52.582;5.388;2023-03-26T08:55:00;9.55;87.15
79336;SHT35;68808;52.582;5.388;2023-03-26T08:58:06;9.53;86.94
79336;SHT35;68808;52.582;5.388;2023-03-26T09:01:17;9.49;86.61
79336;SHT35;68808;52.582;5.388;2023-03-26T09:04:29;9.42;86.26
79336;SHT35;68808;52.582;5.388;2023-03-26T09:07:28;9.34;86.83
79336;SHT35;68808;52.582;5.388;2023-03-26T09:10:25;9.25;86.41
79336;SHT35;68808;52.582;5.388;2023-03-26T09:19:30;9.04;87.05
79336;SHT35;68808;52.582;5.388;2023-03-26T09:28:58;8.85;87.97
79336;SHT35;68808;52.582;5.388;2023-03-26T09:35:09;8.81;87.70
79336;SHT35;68808;52.582;5.388;2023-03-26T09:37:56;8.81;88.35
79336;SHT35;68808;52.582;5.388;2023-03-26T09:40:39;8.82;88.51
79336;SHT35;68808;52.582;5.388;2023-03-26T09:43:37;8.85;88.08
79336;SHT35;68808;52.582;5.388;2023-03-26T09:46:24;8.89;87.50
79336;SHT35;68808;52.582;5.388;2023-03-26T09:52:50;8.94;86.90
79336;SHT35;68808;52.582;5.388;2023-03-26T09:55:51;8.95;86.89
79336;SHT35;68808;52.582;5.388;2023-03-26T09:58:47;8.96;86.71
79336;SHT35;68808;52.582;5.388;2023-03-26T10:01:34;8.97;86.40
79336;SHT35;68808;52.582;5.388;2023-03-26T10:04:40;8.97;86.40
79336;SHT35;68808;52.582;5.388;2023-03-26T10:10:52;8.91;85.74
79336;SHT35;68808;52.582;5.388;2023-03-26T10:13:35;8.82;86.84
79336;SHT35;68808;52.582;5.388;2023-03-26T10:26:37;8.80;85.88
79336;SHT35;68808;52.582;5.388;2023-03-26T10:29:54;8.80;85.89
79336;SHT35;68808;52.582;5.388;2023-03-26T10:32:35;8.81;86.13
79336;SHT35;68808;52.582;5.388;2023-03-26T10:35:25;8.83;86.47
79336;SHT35;68808;52.582;5.388;2023-03-26T10:38:13;8.85;85.80
79336;SHT35;68808;52.582;5.388;2023-03-26T10:41:00;8.86;85.17
79336;SHT35;68808;52.582;5.388;2023-03-26T10:44:07;8.85;85.51
79336;SHT35;68808;52.582;5.388;2023-03-26T10:50:12;8.87;87.09
79336;SHT35;68808;52.582;5.388;2023-03-26T10:52:56;8.90;86.43
79336;SHT35;68808;52.582;5.388;2023-03-26T10:55:36;8.92;86.25
79336;SHT35;68808;52.582;5.388;2023-03-26T11:01:00;8.83;85.48
79336;SHT35;68808;52.582;5.388;2023-03-26T11:03:46;8.77;85.85
79336;SHT35;68808;52.582;5.388;2023-03-26T11:06:29;8.73;86.76
79336;SHT35;68808;52.582;5.388;2023-03-26T11:09:18;8.70;86.79
79336;SHT35;68808;52.582;5.388;2023-03-26T11:12:00;8.67;87.26
79336;SHT35;68808;52.582;5.388;2023-03-26T11:15:04;8.66;86.49
79336;SHT35;68808;52.582;5.388;2023-03-26T11:17:55;8.66;85.32
79336;SHT35;68808;52.582;5.388;2023-03-26T11:20:36;8.68;84.69
79336;SHT35;68808;52.582;5.388;2023-03-26T11:23:32;8.70;84.66
79336;SHT35;68808;52.582;5.388;2023-03-26T11:26:11;8.74;84.62
79336;SHT35;68808;52.582;5.388;2023-03-26T11:29:05;8.75;83.30
79336;SHT35;68808;52.582;5.388;2023-03-26T11:32:06;8.73;82.94
79336;SHT35;68808;52.582;5.388;2023-03-26T11:34:54;8.73;83.46
79336;SHT35;68808;52.582;5.388;2023-03-26T11:37:32;8.77;84.39
79336;SHT35;68808;52.582;5.388;2023-03-26T11:40:13;8.84;85.05
79336;SHT35;68808;52.582;5.388;2023-03-26T11:42:55;8.92;83.65
79336;SHT35;68808;52.582;5.388;2023-03-26T11:45:31;8.96;83.78
79336;SHT35;68808;52.582;5.388;2023-03-26T11:48:11;8.98;82.56
79336;SHT35;68808;52.582;5.388;2023-03-26T11:50:50;8.96;81.19
79336;SHT35;68808;52.582;5.388;2023-03-26T11:53:30;8.90;81.73
79336;SHT35;68808;52.582;5.388;2023-03-26T11:56:13;8.85;81.75
79336;SHT35;68808;52.582;5.388;2023-03-26T11:58:52;8.80;81.69
79336;SHT35;68808;52.582;5.388;2023-03-26T12:01:41;8.73;81.69
79336;SHT35;68808;52.582;5.388;2023-03-26T12:07:52;8.63;83.82
79336;SHT35;68808;52.582;5.388;2023-03-26T12:10:32;8.64;84.21
79336;SHT35;68808;52.582;5.388;2023-03-26T12:13:27;8.64;84.65
79336;SHT35;68808;52.582;5.388;2023-03-26T12:16:05;8.75;85.67
79336;SHT35;68808;52.582;5.388;2023-03-26T12:18:39;8.88;83.64
79336;SHT35;68808;52.582;5.388;2023-03-26T12:24:42;9.03;80.95
79336;SHT35;68808;52.582;5.388;2023-03-26T12:27:23;9.05;81.56
79336;SHT35;68808;52.582;5.388;2023-03-26T12:30:07;9.07;81.40
79336;SHT35;68808;52.582;5.388;2023-03-26T12:32:41;9.14;82.34
79336;SHT35;68808;52.582;5.388;2023-03-26T12:38:16;9.29;77.11
79336;SHT35;68808;52.582;5.388;2023-03-26T12:41:08;9.36;77.78
79336;SHT35;68808;52.582;5.388;2023-03-26T12:44:21;9.45;76.03
79336;SHT35;68808;52.582;5.388;2023-03-26T12:47:19;9.49;74.48
79336;SHT35;68808;52.582;5.388;2023-03-26T12:50:12;9.52;75.16
79336;SHT35;68808;52.582;5.388;2023-03-26T12:53:28;9.56;75.54
79336;SHT35;68808;52.582;5.388;2023-03-26T12:56:18;9.61;74.73
79336;SHT35;68808;52.582;5.388;2023-03-26T12:59:10;9.69;75.15
79336;SHT35;68808;52.582;5.388;2023-03-26T13:01:54;9.77;73.24
79336;SHT35;68808;52.582;5.388;2023-03-26T13:08:13;9.86;73.27
79336;SHT35;68808;52.582;5.388;2023-03-26T13:11:01;9.91;72.00
79336;SHT35;68808;52.582;5.388;2023-03-26T13:16:52;9.98;70.29
79336;SHT35;68808;52.582;5.388;2023-03-26T13:19:33;10.02;69.04
79336;SHT35;68808;52.582;5.388;2023-03-26T13:25:34;10.10;68.75
79336;SHT35;68808;52.582;5.388;2023-03-26T13:28:19;10.12;67.33
79336;SHT35;68808;52.582;5.388;2023-03-26T13:31:06;10.12;67.59
79336;SHT35;68808;52.582;5.388;2023-03-26T13:33:52;10.11;68.30
79336;SHT35;68808;52.582;5.388;2023-03-26T13:36:40;10.11;66.92
79336;SHT35;68808;52.582;5.388;2023-03-26T13:39:26;10.09;66.55
79336;SHT35;68808;52.582;5.388;2023-03-26T13:42:20;10.07;66.46
79336;SHT35;68808;52.582;5.388;2023-03-26T13:45:05;10.04;66.92
79336;SHT35;68808;52.582;5.388;2023-03-26T13:47:46;10.06;67.17
79336;SHT35;68808;52.582;5.388;2023-03-26T13:50:25;10.11;65.60
79336;SHT35;68808;52.582;5.388;2023-03-26T13:53:00;10.16;65.43
79336;SHT35;68808;52.582;5.388;2023-03-26T13:55:38;10.24;64.22
79336;SHT35;68808;52.582;5.388;2023-03-26T13:58:19;10.30;64.75
79336;SHT35;68808;52.582;5.388;2023-03-26T14:01:06;10.38;65.36
79336;SHT35;68808;52.582;5.388;2023-03-26T14:03:51;10.44;64.51
79336;SHT35;68808;52.582;5.388;2023-03-26T14:06:39;10.47;65.25
79336;SHT35;68808;52.582;5.388;2023-03-26T14:09:19;10.49;64.08
79336;SHT35;68808;52.582;5.388;2023-03-26T14:14:56;10.49;65.70
79336;SHT35;68808;52.582;5.388;2023-03-26T14:17:37;10.50;63.86
79336;SHT35;68808;52.582;5.388;2023-03-26T14:20:47;10.48;64.40
79336;SHT35;68808;52.582;5.388;2023-03-26T14:26:57;10.35;63.42
79336;SHT35;68808;52.582;5.388;2023-03-26T14:29:55;10.23;62.48
79336;SHT35;68808;52.582;5.388;2023-03-26T14:32:47;10.07;62.81
79336;SHT35;68808;52.582;5.388;2023-03-26T14:35:38;9.95;63.25
79336;SHT35;68808;52.582;5.388;2023-03-26T14:41:24;9.83;64.32
79336;SHT35;68808;52.582;5.388;2023-03-26T14:44:26;9.81;64.63
79336;SHT35;68808;52.582;5.388;2023-03-26T14:47:16;9.80;64.44
79336;SHT35;68808;52.582;5.388;2023-03-26T14:53:26;9.76;63.27
79336;SHT35;68808;52.582;5.388;2023-03-26T14:56:41;9.75;63.53
79336;SHT35;68808;52.582;5.388;2023-03-26T15:03:04;9.67;62.82
79336;SHT35;68808;52.582;5.388;2023-03-26T15:06:09;9.60;62.83
79336;SHT35;68808;52.582;5.388;2023-03-26T15:12:06;9.42;61.47
79336;SHT35;68808;52.582;5.388;2023-03-26T15:15:24;9.34;61.55
79336;SHT35;68808;52.582;5.388;2023-03-26T15:18:25;9.26;62.11
79336;SHT35;68808;52.582;5.388;2023-03-26T15:21:36;9.24;61.95
79336;SHT35;68808;52.582;5.388;2023-03-26T15:24:55;9.25;61.70
79336;SHT35;68808;52.582;5.388;2023-03-26T15:27:56;9.33;62.81
79336;SHT35;68808;52.582;5.388;2023-03-26T15:30:55;9.45;60.88
79336;SHT35;68808;52.582;5.388;2023-03-26T15:37:23;9.61;59.07
79336;SHT35;68808;52.582;5.388;2023-03-26T15:43:08;9.66;58.55
79336;SHT35;68808;52.582;5.388;2023-03-26T15:45:44;9.64;58.70
79336;SHT35;68808;52.582;5.388;2023-03-26T15:51:32;9.60;60.66
79336;SHT35;68808;52.582;5.388;2023-03-26T15:54:24;9.58;58.33
79336;SHT35;68808;52.582;5.388;2023-03-26T15:57:07;9.49;58.08
79336;SHT35;68808;52.582;5.388;2023-03-26T16:00:00;9.39;57.77
79336;SHT35;68808;52.582;5.388;2023-03-26T16:02:47;9.28;58.19
79336;SHT35;68808;52.582;5.388;2023-03-26T16:05:43;9.19;58.76
79336;SHT35;68808;52.582;5.388;2023-03-26T16:08:29;9.09;58.81
79336;SHT35;68808;52.582;5.388;2023-03-26T16:11:06;8.97;58.42
79336;SHT35;68808;52.582;5.388;2023-03-26T16:13:42;8.75;59.12
79336;SHT35;68808;52.582;5.388;2023-03-26T16:16:23;8.70;58.12
79336;SHT35;68808;52.582;5.388;2023-03-26T16:18:58;8.64;58.97
79336;SHT35;68808;52.582;5.388;2023-03-26T16:22:00;8.61;59.51
79336;SHT35;68808;52.582;5.388;2023-03-26T16:24:35;8.59;58.78
79336;SHT35;68808;52.582;5.388;2023-03-26T16:27:30;8.57;58.24
79336;SHT35;68808;52.582;5.388;2023-03-26T16:30:14;8.55;59.18
79336;SHT35;68808;52.582;5.388;2023-03-26T16:32:53;8.54;58.70
79336;SHT35;68808;52.582;5.388;2023-03-26T16:35:51;8.52;57.78
79336;SHT35;68808;52.582;5.388;2023-03-26T16:38:47;8.49;58.34
79336;SHT35;68808;52.582;5.388;2023-03-26T16:41:25;8.45;58.46
79336;SHT35;68808;52.582;5.388;2023-03-26T16:44:06;8.42;57.56
79336;SHT35;68808;52.582;5.388;2023-03-26T16:46:48;8.37;56.68
79336;SHT35;68808;52.582;5.388;2023-03-26T16:49:49;8.32;56.20
79336;SHT35;68808;52.582;5.388;2023-03-26T16:52:43;8.26;56.37
79336;SHT35;68808;52.582;5.388;2023-03-26T16:55:34;8.21;55.23
79336;SHT35;68808;52.582;5.388;2023-03-26T16:58:22;8.16;55.16
79336;SHT35;68808;52.582;5.388;2023-03-26T17:01:07;8.11;55.16
79336;SHT35;68808;52.582;5.388;2023-03-26T17:03:52;8.10;55.99
79336;SHT35;68808;52.582;5.388;2023-03-26T17:09:36;8.14;55.98
79336;SHT35;68808;52.582;5.388;2023-03-26T17:12:19;8.12;56.07
79336;SHT35;68808;52.582;5.388;2023-03-26T17:15:06;8.06;55.48
79336;SHT35;68808;52.582;5.388;2023-03-26T17:20:58;7.92;55.18
79336;SHT35;68808;52.582;5.388;2023-03-26T17:23:53;7.85;54.53
79336;SHT35;68808;52.582;5.388;2023-03-26T17:26:40;7.76;53.19
79336;SHT35;68808;52.582;5.388;2023-03-26T17:29:24;7.69;54.09
79336;SHT35;68808;52.582;5.388;2023-03-26T17:32:05;7.62;55.03
79336;SHT35;68808;52.582;5.388;2023-03-26T17:34:55;7.57;55.40
79336;SHT35;68808;52.582;5.388;2023-03-26T17:37:41;7.52;56.13
79336;SHT35;68808;52.582;5.388;2023-03-26T17:40:46;7.46;56.39
79336;SHT35;68808;52.582;5.388;2023-03-26T17:43:36;7.42;58.11
79336;SHT35;68808;52.582;5.388;2023-03-26T17:46:26;7.38;57.31
79336;SHT35;68808;52.582;5.388;2023-03-26T17:49:06;7.32;56.43
79336;SHT35;68808;52.582;5.388;2023-03-26T17:51:49;7.26;56.59
79336;SHT35;68808;52.582;5.388;2023-03-26T17:54:31;7.21;56.05
79336;SHT35;68808;52.582;5.388;2023-03-26T17:57:14;7.15;56.11
79336;SHT35;68808;52.582;5.388;2023-03-26T17:59:50;7.11;56.53
79336;SHT35;68808;52.582;5.388;2023-03-26T18:02:33;7.07;56.27
79336;SHT35;68808;52.582;5.388;2023-03-26T18:05:13;7.04;55.95
79336;SHT35;68808;52.582;5.388;2023-03-26T18:11:15;6.95;56.85
79336;SHT35;68808;52.582;5.388;2023-03-26T18:14:13;6.77;58.68
79336;SHT35;68808;52.582;5.388;2023-03-26T18:16:50;6.72;58.94
79336;SHT35;68808;52.582;5.388;2023-03-26T18:19:23;6.67;58.01
79336;SHT35;68808;52.582;5.388;2023-03-26T18:21:57;6.60;57.14
79336;SHT35;68808;52.582;5.388;2023-03-26T18:24:31;6.56;57.56
79336;SHT35;68808;52.582;5.388;2023-03-26T18:27:07;6.53;56.52
79336;SHT35;68808;52.582;5.388;2023-03-26T18:29:56;6.50;57.61
79336;SHT35;68808;52.582;5.388;2023-03-26T18:32:31;6.50;57.93
79336;SHT35;68808;52.582;5.388;2023-03-26T18:35:15;6.49;57.20
79336;SHT35;68808;52.582;5.388;2023-03-26T18:37:51;6.50;57.76
79336;SHT35;68808;52.582;5.388;2023-03-26T18:40:30;6.51;58.15
79336;SHT35;68808;52.582;5.388;2023-03-26T18:43:03;6.53;58.52
79336;SHT35;68808;52.582;5.388;2023-03-26T18:45:39;6.55;58.83
79336;SHT35;68808;52.582;5.388;2023-03-26T18:48:17;6.56;59.19
79336;SHT35;68808;52.582;5.388;2023-03-26T18:50:53;6.58;59.05
79336;SHT35;68808;52.582;5.388;2023-03-26T18:53:37;6.58;59.67
79336;SHT35;68808;52.582;5.388;2023-03-26T18:56:26;6.60;60.61
79336;SHT35;68808;52.582;5.388;2023-03-26T18:58:59;6.61;60.39
79336;SHT35;68808;52.582;5.388;2023-03-26T19:01:36;6.62;60.81
79336;SHT35;68808;52.582;5.388;2023-03-26T19:04:11;6.60;59.61
79336;SHT35;68808;52.582;5.388;2023-03-26T19:06:45;6.54;59.86